METAR Data
IDs: Format: Raw Decoded Include TAF

Data at: 1216 UTC 21 Nov 2018

KEDC 211155Z AUTO 01005KT 10SM CLR 04/01 A3033 RMK AO2
KEDC 211135Z AUTO 01005KT 10SM CLR 04/01 A3033 RMK AO2
KEDC 211115Z AUTO 01005KT 10SM CLR 04/01 A3033 RMK AO2
KEDC 211055Z AUTO 01005KT 10SM CLR 04/01 A3032 RMK AO2
KEDC 211035Z AUTO 02005KT 10SM CLR 05/01 A3032 RMK AO2
KEDC 211015Z AUTO 02006KT 10SM FEW026 05/01 A3032 RMK AO2
KEDC 210955Z AUTO 02006KT 10SM CLR 05/01 A3032 RMK AO2
KEDC 210935Z AUTO 01005KT 10SM CLR 05/02 A3032 RMK AO2
KEDC 210915Z AUTO 00000KT 10SM CLR 05/01 A3033 RMK AO2
KEDC 210855Z AUTO 02006KT 10SM CLR 05/02 A3033 RMK AO2
KEDC 210835Z AUTO 01004KT 10SM CLR 05/02 A3033 RMK AO2
KEDC 210815Z AUTO 01006KT 10SM FEW026 05/02 A3033 RMK AO2
KEDC 210755Z AUTO 36005KT 10SM CLR 05/02 A3033 RMK AO2
KEDC 210735Z AUTO 36006KT 10SM FEW026 05/02 A3033 RMK AO2
KEDC 210715Z AUTO 36005KT 10SM SCT026 06/02 A3033 RMK AO2
KEDC 210655Z AUTO 01005KT 10SM FEW026 05/02 A3033 RMK AO2
KEDC 210635Z AUTO 01005KT 10SM CLR 06/02 A3033 RMK AO2
KEDC 210615Z AUTO 36006KT 10SM CLR 06/02 A3033 RMK AO2
KEDC 210555Z AUTO 35005KT 10SM CLR 07/02 A3034 RMK AO2
KEDC 210535Z AUTO 35005KT 10SM CLR 07/02 A3035 RMK AO2
KEDC 210515Z AUTO 36005KT 10SM CLR 07/03 A3034 RMK AO2
KEDC 210455Z AUTO 36006KT 10SM CLR 06/03 A3034 RMK AO2
KEDC 210435Z AUTO 36005KT 10SM CLR 07/03 A3034 RMK AO2
KEDC 210415Z AUTO 00000KT 10SM CLR 08/03 A3034 RMK AO2
KEDC 210355Z AUTO 00000KT 10SM CLR 08/03 A3034 RMK AO2
KEDC 210335Z AUTO 00000KT 10SM CLR 08/03 A3034 RMK AO2
KEDC 210315Z AUTO 00000KT 10SM CLR 08/03 A3034 RMK AO2
KEDC 210255Z AUTO 36004KT 10SM CLR 08/03 A3034 RMK AO2
KEDC 210235Z AUTO 01005KT 10SM FEW026 08/03 A3033 RMK AO2
KEDC 210215Z AUTO 02004KT 10SM FEW024 08/03 A3032 RMK AO2
KEDC 210155Z AUTO 02005KT 10SM FEW022 09/03 A3032 RMK AO2
KEDC 210135Z AUTO 02004KT 10SM FEW026 09/03 A3032 RMK AO2
KEDC 210115Z AUTO 01006KT 10SM FEW024 09/03 A3031 RMK AO2
KEDC 210055Z AUTO 10SM FEW024 09/03 A3031 RMK AO2
KEDC 210035Z AUTO 00000KT 10SM SCT026 10/02 A3031 RMK AO2
KEDC 210015Z AUTO 00000KT 10SM SCT026 12/02 A3031 RMK AO2
KEDC 202355Z AUTO 04004KT 10SM CLR 12/02 A3030 RMK AO2
KEDC 202335Z AUTO 00000KT 10SM CLR 12/02 A3029 RMK AO2
KEDC 202315Z AUTO 04005KT 10SM CLR 13/02 A3029 RMK AO2
KEDC 202255Z AUTO 04005KT 10SM CLR 14/01 A3028 RMK AO2
KEDC 202235Z AUTO 04008KT 10SM CLR 15/01 A3028 RMK AO2
KEDC 202215Z AUTO 02011KT 10SM CLR 15/02 A3028 RMK AO2
KEDC 202155Z AUTO 03009G14KT 10SM CLR 15/02 A3028 RMK AO2
KEDC 202135Z AUTO 03011G14KT 10SM CLR 15/02 A3029 RMK AO2
KEDC 202115Z AUTO 02011G15KT 10SM CLR 15/02 A3029 RMK AO2
KEDC 202055Z AUTO 03007KT 10SM CLR 15/02 A3029 RMK AO2
KEDC 202035Z AUTO 02013KT 10SM CLR 15/02 A3030 RMK AO2
KEDC 202015Z AUTO 02012KT 10SM CLR 15/02 A3030 RMK AO2
KEDC 201955Z AUTO 03009KT 10SM CLR 15/02 A3031 RMK AO2
KEDC 201935Z AUTO 04009G14KT 10SM CLR 15/02 A3032 RMK AO2
KEDC 201915Z AUTO 03011G15KT 10SM CLR 15/02 A3032 RMK AO2
KEDC 201855Z AUTO 02009KT 340V050 10SM CLR 15/02 A3033 RMK AO2
KEDC 201835Z AUTO 06010G15KT 10SM CLR 14/02 A3035 RMK AO2
KEDC 201815Z AUTO 02009G15KT 10SM CLR 14/02 A3036 RMK AO2
KEDC 201755Z AUTO 05010G16KT 10SM CLR 14/02 A3037 RMK AO2
KEDC 201735Z AUTO 03007G15KT 10SM CLR 13/02 A3038 RMK AO2
KEDC 201715Z AUTO 04012KT 10SM CLR 13/02 A3039 RMK AO2
KEDC 201655Z AUTO 03008KT 10SM CLR 13/02 A3040 RMK AO2
KEDC 201635Z AUTO 02008KT 10SM CLR 12/02 A3040 RMK AO2
KEDC 201615Z AUTO 02008KT 9SM CLR 12/03 A3040 RMK AO2
KEDC 201555Z AUTO 03012KT 10SM CLR 11/03 A3039 RMK AO2
KEDC 201535Z AUTO 03012KT 10SM CLR 10/03 A3038 RMK AO2
KEDC 201355Z AUTO 01006KT 9SM CLR 07/03 A3035 RMK AO2
KEDC 201335Z AUTO 36006KT 9SM CLR 05/02 A3034 RMK AO2
KEDC 201315Z AUTO 01003KT 9SM CLR 04/02 A3034 RMK AO2
KEDC 201255Z AUTO 34005KT 10SM CLR 04/02 A3033 RMK AO2
KEDC 201235Z AUTO 34006KT 10SM CLR 04/02 A3032 RMK AO2
KEDC 201215Z AUTO 34006KT 10SM CLR 04/02 A3031 RMK AO2
KEDC 201155Z AUTO 34005KT 10SM CLR 04/02 A3030 RMK AO2
KEDC 201135Z AUTO 34006KT 10SM CLR 04/02 A3030 RMK AO2
KEDC 201115Z AUTO 35007KT 10SM CLR 04/02 A3029 RMK AO2
KEDC 201055Z AUTO 33007KT 10SM CLR 04/02 A3029 RMK AO2
KEDC 201035Z AUTO 33006KT 10SM FEW085 04/02 A3029 RMK AO2
KEDC 201015Z AUTO 33006KT 10SM FEW085 04/02 A3029 RMK AO2
KEDC 200955Z AUTO 34006KT 10SM FEW085 05/03 A3029 RMK AO2
KEDC 200935Z AUTO 34007KT 10SM CLR 05/03 A3029 RMK AO2
KEDC 200915Z AUTO 35007KT 10SM CLR 05/03 A3027 RMK AO2
KEDC 200855Z AUTO 35006KT 10SM CLR 05/03 A3028 RMK AO2
KEDC 200835Z AUTO 36006KT 10SM CLR 06/03 A3028 RMK AO2
KEDC 200815Z AUTO 36006KT 10SM CLR 06/03 A3028 RMK AO2
KEDC 200755Z AUTO 35006KT 10SM CLR 06/03 A3028 RMK AO2
KEDC 200735Z AUTO 35006KT 10SM CLR 06/03 A3028 RMK AO2
KEDC 200715Z AUTO 35006KT 10SM CLR 07/03 A3027 RMK AO2
KEDC 200655Z AUTO 35007KT 10SM CLR 07/03 A3027 RMK AO2
KEDC 200615Z AUTO 34003KT 10SM SCT042 08/03 A3027 RMK AO2
KEDC 200555Z AUTO 36006KT 10SM BKN044 09/03 A3027 RMK AO2
KEDC 200535Z AUTO 01006KT 10SM OVC044 10/03 A3026 RMK AO2
KEDC 200515Z AUTO 01006KT 10SM OVC044 10/03 A3027 RMK AO2
KEDC 200455Z AUTO 01006KT 10SM OVC044 10/03 A3027 RMK AO2
KEDC 200435Z AUTO 01007KT 10SM OVC042 10/03 A3026 RMK AO2
KEDC 200415Z AUTO 01007KT 10SM OVC042 10/04 A3026 RMK AO2
KEDC 200355Z AUTO 01008KT 10SM OVC042 10/04 A3025 RMK AO2
KEDC 200335Z AUTO 01007KT 10SM OVC042 10/04 A3024 RMK AO2
KEDC 200315Z AUTO 02007KT 10SM OVC044 10/04 A3024 RMK AO2
KEDC 200255Z AUTO 01006KT 10SM OVC044 10/04 A3024 RMK AO2
KEDC 200235Z AUTO 02005KT 10SM OVC046 10/04 A3023 RMK AO2
KEDC 200215Z AUTO 02007KT 10SM OVC046 10/04 A3022 RMK AO2
KEDC 200155Z AUTO 01006KT 10SM OVC046 10/04 A3022 RMK AO2
KEDC 200135Z AUTO 01006KT 10SM OVC042 10/04 A3021 RMK AO2
KEDC 200115Z AUTO 01007KT 10SM OVC042 10/04 A3020 RMK AO2
KEDC 200055Z AUTO 01008KT 10SM OVC040 10/04 A3020 RMK AO2
KEDC 200035Z AUTO 01007KT 10SM OVC040 10/04 A3019 RMK AO2